Time;durP1;ratioP1;P1;durP2;ratioP2;P2;SDS_P1;SDS_P2;PMS_P1;PMS_P2;Temp;Humidity;BMP_temperature;BMP_pressure;BME280_temperature;BME280_humidity;BME280_pressure;Samples;Min_cycle;Max_cycle;Signal;HPM_P1;HPM_P2
2022/07/19 00:00:14;;;;;;;;;4.00;4.00;;;;;30.27;25.03;101073.53;5016675;28;46425;-65
2022/07/19 00:02:40;;;;;;;;;6.33;6.33;;;;;30.30;25.26;101069.41;5017790;28;45354;-66
2022/07/19 00:05:08;;;;;;;;;6.00;6.00;;;;;30.17;25.58;101057.81;5015543;28;45422;-65
2022/07/19 00:07:34;;;;;;;;;6.00;4.33;;;;;30.30;25.14;101072.16;5001240;28;45390;-64
2022/07/19 00:10:00;;;;;;;;;6.00;5.00;;;;;29.82;25.71;101006.34;5018783;28;45356;-69
2022/07/19 00:12:26;;;;;;;;;8.00;6.00;;;;;29.68;25.61;100978.59;5017146;28;45337;-66
2022/07/19 00:14:52;;;;;;;;;5.00;5.00;;;;;30.15;25.11;101059.19;5018848;28;45369;-67
2022/07/19 00:17:17;;;;;;;;;7.33;6.33;;;;;30.18;25.52;101064.13;5018946;28;45551;-64
2022/07/19 00:19:42;;;;;;;;;6.33;5.00;;;;;30.16;25.89;101066.31;5018448;28;46325;-64
2022/07/19 00:22:08;;;;;;;;;4.33;4.00;;;;;30.14;25.30;101060.28;5018638;28;45384;-64
2022/07/19 00:24:33;;;;;;;;;7.00;6.33;;;;;29.95;25.44;101038.75;5018851;28;45328;-65
2022/07/19 00:26:58;;;;;;;;;6.33;5.00;;;;;30.05;26.19;101048.19;5000974;28;45831;-65
2022/07/19 00:29:24;;;;;;;;;6.00;6.00;;;;;30.09;25.25;101063.81;5018614;28;46376;-65
2022/07/19 00:31:49;;;;;;;;;7.00;6.00;;;;;30.08;25.90;101064.09;5017259;28;46292;-65
2022/07/19 00:34:15;;;;;;;;;5.33;5.33;;;;;30.00;27.23;101051.66;5017648;28;45441;-63
2022/07/19 00:36:41;;;;;;;;;9.00;5.67;;;;;30.04;26.25;101060.25;5018839;28;45252;-64
2022/07/19 00:39:06;;;;;;;;;5.00;5.00;;;;;29.97;25.47;101058.50;5018575;28;45611;-64
2022/07/19 00:41:31;;;;;;;;;5.00;5.00;;;;;29.89;25.42;101044.50;5018281;28;45235;-65
2022/07/19 00:43:57;;;;;;;;;5.00;5.00;;;;;29.96;25.94;101056.88;5018287;28;45258;-65
2022/07/19 00:46:23;;;;;;;;;6.00;6.00;;;;;29.64;26.02;101007.63;5018288;28;45260;-65
2022/07/19 00:48:50;;;;;;;;;7.00;7.00;;;;;29.90;25.48;101052.44;5018304;28;45654;-65
2022/07/19 00:51:17;;;;;;;;;5.33;5.33;;;;;29.89;25.84;101059.03;5017984;28;45519;-64
2022/07/19 00:53:44;;;;;;;;;7.00;7.00;;;;;29.82;26.63;101039.22;5018348;28;45564;-65
2022/07/19 00:56:12;;;;;;;;;6.00;6.00;;;;;29.80;26.76;101043.31;5017229;28;45243;-66
2022/07/19 00:58:39;;;;;;;;;6.00;6.00;;;;;29.78;25.57;101042.75;5000336;28;47262;-65
2022/07/19 01:01:06;;;;;;;;;4.67;4.67;;;;;29.83;25.74;101053.75;5017971;28;45439;-65
2022/07/19 01:03:37;;;;;;;;;5.67;5.67;;;;;29.78;25.85;101038.09;5018299;28;45409;-64
2022/07/19 01:06:03;;;;;;;;;7.33;6.33;;;;;29.77;25.45;101041.94;5018469;28;45330;-65
2022/07/19 01:08:29;;;;;;;;;8.33;6.67;;;;;29.76;25.71;101045.78;5016494;28;48307;-66
2022/07/19 01:10:54;;;;;;;;;5.00;5.00;;;;;29.39;27.27;100994.53;5017882;28;45393;-66
2022/07/19 01:13:20;;;;;;;;;4.00;3.33;;;;;29.72;26.99;101043.81;4999487;28;45279;-65
2022/07/19 01:15:45;;;;;;;;;5.33;5.33;;;;;29.71;26.71;101043.00;5018021;28;45432;-66
2022/07/19 01:18:10;;;;;;;;;11.67;7.00;;;;;29.66;25.95;101037.50;4999764;28;47761;-65
2022/07/19 01:20:36;;;;;;;;;4.33;4.33;;;;;29.63;25.63;101036.13;5017565;28;45252;-65
2022/07/19 01:23:02;;;;;;;;;7.00;7.00;;;;;29.63;25.57;101048.97;5017825;28;45302;-65
2022/07/19 01:25:33;;;;;;;;;5.67;4.00;;;;;29.55;27.73;101036.59;5017751;28;45278;-65
2022/07/19 01:27:59;;;;;;;;;7.67;6.67;;;;;29.59;27.43;101037.69;5017539;28;46752;-65
2022/07/19 01:30:25;;;;;;;;;6.67;6.67;;;;;29.51;25.96;101037.38;5017331;28;45449;-65
2022/07/19 01:32:52;;;;;;;;;5.00;5.00;;;;;29.55;26.61;101039.31;5017354;28;45344;-66
2022/07/19 01:35:17;;;;;;;;;5.00;5.00;;;;;29.54;26.58;101031.38;5016352;28;45448;-66
2022/07/19 01:37:43;;;;;;;;;6.33;5.00;;;;;29.52;26.01;101033.56;5017088;28;46398;-65
2022/07/19 01:40:13;;;;;;;;;4.00;4.00;;;;;29.50;28.41;101035.72;5017264;28;45426;-64
2022/07/19 01:42:39;;;;;;;;;6.00;5.00;;;;;29.47;25.96;101030.78;5017487;28;45331;-64
2022/07/19 01:45:06;;;;;;;;;5.33;5.33;;;;;29.25;26.83;101004.28;5017657;28;45551;-66
2022/07/19 01:47:31;;;;;;;;;11.67;11.67;;;;;28.60;26.21;100900.47;5016825;28;46678;-64
2022/07/19 01:49:56;;;;;;;;;11.33;9.00;;;;;29.37;27.41;101024.09;5017130;28;45456;-64
2022/07/19 01:52:23;;;;;;;;;5.33;5.00;;;;;29.31;27.13;101016.09;4999276;28;45440;-65
2022/07/19 01:54:48;;;;;;;;;9.00;6.00;;;;;29.34;26.55;101026.53;5017427;28;45344;-65
2022/07/19 01:57:14;;;;;;;;;8.00;8.00;;;;;29.35;27.15;101018.03;5017164;28;46659;-65
2022/07/19 01:59:40;;;;;;;;;6.33;5.33;;;;;29.22;26.75;101002.03;5017088;28;45250;-64
2022/07/19 02:02:05;;;;;;;;;6.67;5.67;;;;;29.18;26.57;101000.09;5017070;28;45196;-65
2022/07/19 02:04:31;;;;;;;;;5.67;4.67;;;;;28.74;28.25;100940.84;5017404;28;45500;-64
2022/07/19 02:06:57;;;;;;;;;4.00;3.67;;;;;29.29;26.62;101024.59;5016825;28;47160;-66
2022/07/19 02:09:22;;;;;;;;;5.67;5.33;;;;;29.19;27.07;101018.19;5016760;28;45525;-65
2022/07/19 02:11:47;;;;;;;;;6.00;5.00;;;;;29.24;26.98;101024.56;5017067;28;45155;-65
2022/07/19 02:14:13;;;;;;;;;5.33;5.33;;;;;28.82;26.68;100963.34;5017036;28;45336;-65
2022/07/19 02:16:39;;;;;;;;;8.33;7.00;;;;;29.20;26.89;101028.88;5017005;28;46247;-66
2022/07/19 02:19:06;;;;;;;;;8.33;8.33;;;;;29.13;27.43;101011.84;5017045;28;45481;-65
2022/07/19 02:21:32;;;;;;;;;20.67;18.33;;;;;29.15;27.26;101020.63;5016926;28;45231;-65
2022/07/19 02:23:58;;;;;;;;;6.33;6.33;;;;;29.10;27.40;101001.41;5016198;28;45472;-64
2022/07/19 02:26:23;;;;;;;;;6.00;6.00;;;;;29.10;26.67;101015.09;5016360;28;46546;-65
2022/07/19 02:28:51;;;;;;;;;5.00;5.00;;;;;29.09;26.79;101013.47;4999248;28;45327;-66
2022/07/19 02:31:17;;;;;;;;;6.33;5.33;;;;;28.82;27.17;100974.28;5016915;28;45251;-64
2022/07/19 02:33:42;;;;;;;;;7.00;6.33;;;;;29.04;27.36;101010.69;5016945;28;45367;-65
2022/07/19 02:36:08;;;;;;;;;6.33;6.00;;;;;28.97;27.20;100996.38;5016455;28;46542;-65
2022/07/19 02:38:33;;;;;;;;;8.00;6.67;;;;;29.01;27.63;101012.00;5016593;28;45243;-64
2022/07/19 02:40:59;;;;;;;;;7.00;6.00;;;;;29.00;27.76;101001.31;4998784;28;45331;-65
2022/07/19 02:43:24;;;;;;;;;7.00;7.00;;;;;28.88;26.98;100989.72;4998909;28;45417;-63
2022/07/19 02:45:50;;;;;;;;;7.00;6.00;;;;;28.97;28.34;100999.94;5016035;28;46439;-65
2022/07/19 02:48:15;;;;;;;;;5.33;5.33;;;;;28.90;27.65;100995.75;5016676;28;45358;-64
2022/07/19 02:50:41;;;;;;;;;6.33;6.33;;;;;28.91;27.40;101003.72;5015481;28;45496;-63
2022/07/19 02:53:07;;;;;;;;;8.00;7.00;;;;;28.81;28.06;100998.09;5015192;28;45356;-65
2022/07/19 02:55:32;;;;;;;;;6.00;6.00;;;;;28.82;28.15;100996.19;5016047;28;47075;-64
2022/07/19 02:57:57;;;;;;;;;5.00;5.00;;;;;28.67;27.88;100977.72;5016517;28;45330;-64
2022/07/19 03:00:23;;;;;;;;;7.00;6.00;;;;;28.58;28.16;100979.25;5016802;28;45321;-66
2022/07/19 03:02:48;;;;;;;;;9.00;6.33;;;;;28.70;28.52;100999.09;5016675;28;45288;-65
2022/07/19 03:05:14;;;;;;;;;7.67;7.67;;;;;28.59;28.10;100976.25;5016232;28;46377;-64
2022/07/19 03:07:39;;;;;;;;;6.33;6.33;;;;;28.45;27.99;100969.56;5016644;28;45187;-64
2022/07/19 03:10:06;;;;;;;;;6.33;6.33;;;;;28.44;28.21;100968.75;5016414;28;45448;-65
2022/07/19 03:12:31;;;;;;;;;7.00;7.00;;;;;28.58;28.11;100990.19;5016380;28;45506;-65
2022/07/19 03:14:57;;;;;;;;;7.00;5.67;;;;;28.55;28.40;100986.06;5015977;28;46599;-64
2022/07/19 03:17:22;;;;;;;;;8.00;6.67;;;;;28.50;28.44;100987.94;5016320;28;45348;-64
2022/07/19 03:19:47;;;;;;;;;6.00;6.00;;;;;28.49;28.18;100989.84;5016293;28;45166;-64
2022/07/19 03:22:13;;;;;;;;;9.00;8.00;;;;;28.44;28.45;100989.78;5016643;28;45419;-65
2022/07/19 03:24:38;;;;;;;;;9.33;6.00;;;;;28.20;28.34;100950.91;5016552;28;46826;-64
2022/07/19 03:27:04;;;;;;;;;8.67;8.00;;;;;28.40;28.49;100994.09;5015867;28;45484;-64
2022/07/19 03:29:29;;;;;;;;;5.33;5.33;;;;;28.36;29.15;100987.50;5014803;28;45456;-65
2022/07/19 03:31:55;;;;;;;;;8.00;8.00;;;;;28.22;28.36;100970.63;5016412;28;45386;-65
2022/07/19 03:34:20;;;;;;;;;6.33;6.33;;;;;28.36;28.98;100988.31;5015768;28;47358;-63
2022/07/19 03:36:45;;;;;;;;;8.00;7.00;;;;;28.37;28.49;101000.91;5000729;28;45307;-64
2022/07/19 03:39:11;;;;;;;;;5.33;5.33;;;;;28.35;28.56;100994.03;5019662;28;45433;-66
2022/07/19 03:41:36;;;;;;;;;5.67;5.67;;;;;28.37;28.79;100998.19;5019946;28;45394;-63
2022/07/19 03:44:02;;;;;;;;;6.67;6.67;;;;;28.40;28.98;100999.56;5019520;28;45730;-64
2022/07/19 03:46:28;;;;;;;;;7.00;7.00;;;;;27.81;29.71;100907.25;5018994;28;45424;-64
2022/07/19 03:48:55;;;;;;;;;9.00;7.33;;;;;28.38;29.14;101001.72;5019251;28;45384;-64
2022/07/19 03:51:20;;;;;;;;;8.00;8.00;;;;;28.29;28.62;100976.75;5019578;28;45496;-64
2022/07/19 03:53:46;;;;;;;;;5.00;5.00;;;;;28.36;28.85;100992.97;5001243;28;47423;-66
2022/07/19 03:56:12;;;;;;;;;6.67;6.67;;;;;28.34;29.09;100995.13;5019064;28;45244;-65
2022/07/19 03:58:37;;;;;;;;;9.00;7.67;;;;;27.90;29.58;100918.59;5019326;28;45474;-65
2022/07/19 04:01:03;;;;;;;;;7.33;7.00;;;;;28.25;28.71;100980.25;5018231;28;45509;-65
2022/07/19 04:03:29;;;;;;;;;7.00;7.00;;;;;28.33;28.74;100998.94;5018916;28;46356;-66
2022/07/19 04:05:54;;;;;;;;;8.33;7.00;;;;;27.91;28.80;100925.69;5019241;28;45500;-65
2022/07/19 04:08:20;;;;;;;;;6.67;6.67;;;;;28.26;28.97;100987.38;5019115;28;45325;-66
2022/07/19 04:10:45;;;;;;;;;6.33;6.33;;;;;27.65;28.96;100886.31;5001563;28;45390;-66
2022/07/19 04:13:10;;;;;;;;;11.00;7.67;;;;;28.27;29.08;100999.97;5018665;28;46107;-65
2022/07/19 04:15:36;;;;;;;;;9.00;8.00;;;;;28.22;28.79;100992.47;5000692;28;45477;-65
2022/07/19 04:18:01;;;;;;;;;12.67;12.67;;;;;28.16;30.79;100977.94;5018837;28;45299;-65
2022/07/19 04:20:26;;;;;;;;;9.67;9.00;;;;;27.86;29.12;100934.66;5019074;28;45246;-66
2022/07/19 04:22:53;;;;;;;;;9.00;7.67;;;;;28.18;29.20;100983.97;5001003;28;46449;-67
2022/07/19 04:25:19;;;;;;;;;10.67;8.33;;;;;28.24;29.03;101000.47;5000712;28;45429;-64
2022/07/19 04:27:44;;;;;;;;;15.33;10.67;;;;;28.18;30.35;100994.91;5018950;28;45504;-65
2022/07/19 04:30:10;;;;;;;;;10.00;9.00;;;;;28.20;29.30;100994.66;5018771;28;45535;-65
2022/07/19 04:32:35;;;;;;;;;9.67;8.67;;;;;28.17;29.31;100990.53;5018418;28;45989;-65
2022/07/19 04:35:02;;;;;;;;;14.67;10.33;;;;;28.12;29.35;100982.25;5018772;28;45462;-65
2022/07/19 04:37:27;;;;;;;;;10.67;9.67;;;;;28.16;30.16;100986.13;5018290;28;45556;-64
2022/07/19 04:39:52;;;;;;;;;7.67;7.67;;;;;28.04;29.29;100965.50;5018686;28;45290;-64
2022/07/19 04:42:18;;;;;;;;;11.33;9.67;;;;;28.18;29.71;100983.16;5018028;28;46267;-64
2022/07/19 04:44:43;;;;;;;;;12.33;11.33;;;;;28.02;30.56;100960.25;5018283;28;45309;-65
2022/07/19 04:47:09;;;;;;;;;12.00;9.67;;;;;27.78;29.61;100915.13;5017126;28;45266;-64
2022/07/19 04:49:35;;;;;;;;;9.00;7.67;;;;;28.18;29.43;100983.97;5018337;28;45458;-65
2022/07/19 04:52:01;;;;;;;;;9.67;8.00;;;;;28.19;29.42;100973.88;5017693;28;46327;-64
2022/07/19 04:54:26;;;;;;;;;8.67;8.00;;;;;28.16;30.09;100977.09;5017836;28;45404;-66
2022/07/19 04:56:51;;;;;;;;;11.00;9.00;;;;;28.09;29.13;100960.91;5017954;28;45519;-64
2022/07/19 04:59:17;;;;;;;;;11.67;9.33;;;;;28.17;29.52;100985.06;5017956;28;45255;-66
2022/07/19 05:01:42;;;;;;;;;11.67;10.67;;;;;28.02;29.15;100960.25;5017697;28;46245;-66
2022/07/19 05:04:07;;;;;;;;;10.67;10.67;;;;;27.96;29.92;100942.16;4999721;28;45439;-65
2022/07/19 05:06:33;;;;;;;;;9.00;7.67;;;;;28.19;29.23;100971.13;5018073;28;45342;-63
2022/07/19 05:08:58;;;;;;;;;8.33;8.00;;;;;27.78;29.59;100909.69;5018373;28;45405;-64
2022/07/19 05:11:24;;;;;;;;;11.33;10.00;;;;;27.67;29.51;100889.59;4999848;28;46310;-64
2022/07/19 05:13:49;;;;;;;;;14.00;12.67;;;;;28.13;29.84;100970.25;5017644;28;45415;-64
2022/07/19 05:16:15;;;;;;;;;9.00;8.00;;;;;27.58;29.56;100891.09;5017890;28;45271;-65
2022/07/19 05:18:40;;;;;;;;;8.67;8.00;;;;;28.07;29.21;100976.75;4999879;28;45374;-64
2022/07/19 05:21:05;;;;;;;;;7.67;7.67;;;;;27.88;29.65;100948.91;5017505;28;46918;-65
2022/07/19 05:23:31;;;;;;;;;8.00;8.00;;;;;27.22;29.43;100835.16;5017570;28;45265;-64
2022/07/19 05:25:56;;;;;;;;;8.00;8.00;;;;;28.02;29.47;100971.19;4999887;28;45662;-65
2022/07/19 05:28:23;;;;;;;;;10.33;8.33;;;;;27.95;29.44;100965.09;5017714;28;45318;-64
2022/07/19 05:30:48;;;;;;;;;9.67;8.33;;;;;28.02;29.33;100979.38;5017414;28;46548;-65
2022/07/19 05:33:15;;;;;;;;;8.00;8.00;;;;;27.99;29.63;100960.78;5017027;28;45416;-64
2022/07/19 05:35:40;;;;;;;;;9.00;9.00;;;;;28.04;29.44;100971.78;4999793;28;45405;-64
2022/07/19 05:38:06;;;;;;;;;12.67;10.00;;;;;28.03;29.66;100978.34;5017573;28;45326;-63
2022/07/19 05:40:31;;;;;;;;;12.00;11.33;;;;;27.97;30.10;100957.47;5017154;28;46816;-65
2022/07/19 05:42:56;;;;;;;;;8.33;8.33;;;;;28.04;29.97;100974.53;5017159;28;45263;-63
2022/07/19 05:45:22;;;;;;;;;9.67;9.00;;;;;28.05;30.34;100975.34;4999142;28;45406;-65
2022/07/19 05:47:47;;;;;;;;;8.67;8.67;;;;;27.93;29.78;100950.88;5017482;28;45392;-65
2022/07/19 05:50:12;;;;;;;;;11.00;10.00;;;;;27.97;30.98;100954.72;5016998;28;46393;-65
2022/07/19 05:52:38;;;;;;;;;11.67;9.00;;;;;28.04;30.12;100962.75;5016963;28;45325;-64
2022/07/19 05:55:07;;;;;;;;;11.33;10.00;;;;;28.00;30.31;100943.28;5016942;28;45341;-65
2022/07/19 05:57:32;;;;;;;;;12.00;10.00;;;;;28.14;29.79;100958.22;4999358;28;45484;-65
2022/07/19 05:59:58;;;;;;;;;13.33;9.00;;;;;28.17;29.89;100963.19;5016853;28;46526;-64
2022/07/19 06:02:24;;;;;;;;;11.00;11.00;;;;;28.04;30.21;100925.31;5017191;28;45223;-65
2022/07/19 06:04:49;;;;;;;;;13.67;11.00;;;;;28.28;30.37;100958.72;5017221;28;45333;-65
2022/07/19 06:07:14;;;;;;;;;9.67;9.00;;;;;28.37;29.79;100951.69;5017326;28;45460;-64
2022/07/19 06:09:40;;;;;;;;;10.67;10.67;;;;;28.53;29.42;100943.66;5016422;28;45630;-66
2022/07/19 06:12:06;;;;;;;;;9.00;9.00;;;;;28.81;29.31;100954.31;5016640;28;45515;-66
2022/07/19 06:14:31;;;;;;;;;8.33;8.33;;;;;29.06;29.00;100946.38;5017000;28;45446;-65
2022/07/19 06:16:56;;;;;;;;;7.33;7.33;;;;;29.34;28.95;100939.72;5017023;28;45467;-65
2022/07/19 06:19:22;;;;;;;;;12.33;10.67;;;;;29.62;28.59;100951.41;4998927;28;47359;-65
2022/07/19 06:21:47;;;;;;;;;12.00;10.33;;;;;29.81;28.02;100933.41;5016786;28;45562;-64
2022/07/19 06:24:13;;;;;;;;;12.67;11.67;;;;;30.14;27.99;100945.09;5016831;28;45400;-66
2022/07/19 06:26:38;;;;;;;;;9.00;9.00;;;;;30.37;27.66;100936.41;5016977;28;45282;-65
2022/07/19 06:29:04;;;;;;;;;12.00;10.67;;;;;30.69;27.10;100946.38;5015472;28;48521;-66
2022/07/19 06:31:29;;;;;;;;;12.00;10.00;;;;;30.86;26.50;100927.72;5016700;28;45528;-65
2022/07/19 06:33:57;;;;;;;;;10.33;10.00;;;;;31.04;26.26;100918.94;4998602;28;45483;-66
2022/07/19 06:36:22;;;;;;;;;10.00;10.00;;;;;31.23;26.29;100915.59;4999106;28;45296;-65
2022/07/19 06:38:49;;;;;;;;;12.00;11.00;;;;;31.48;25.88;100923.81;5016535;28;46079;-66
2022/07/19 06:41:15;;;;;;;;;10.67;10.00;;;;;31.60;26.14;100918.81;5015099;28;45314;-65
2022/07/19 06:43:41;;;;;;;;;8.00;8.00;;;;;31.81;25.73;100924.28;5015175;28;45635;-68
2022/07/19 06:46:10;;;;;;;;;9.67;9.67;;;;;31.77;25.74;100874.53;5016234;28;45400;-65
2022/07/19 06:48:36;;;;;;;;;9.00;9.00;;;;;32.09;25.21;100907.13;5016540;28;46015;-66
2022/07/19 06:51:01;;;;;;;;;12.33;12.00;;;;;32.24;24.33;100906.22;4998455;28;45207;-65
2022/07/19 06:53:26;;;;;;;;;12.67;9.33;;;;;32.34;25.26;100895.97;5016428;28;45433;-66
2022/07/19 06:55:52;;;;;;;;;12.00;10.67;;;;;32.59;25.10;100910.66;5016612;28;45896;-68
2022/07/19 06:58:17;;;;;;;;;11.00;10.00;;;;;32.67;24.36;100902.63;4997251;28;46750;-66
2022/07/19 07:00:43;;;;;;;;;11.33;9.33;;;;;32.87;24.90;100912.69;4998328;28;45433;-65
2022/07/19 07:03:08;;;;;;;;;10.00;10.00;;;;;32.98;24.13;100918.91;5016451;28;45801;-66
2022/07/19 07:05:34;;;;;;;;;12.00;10.00;;;;;32.99;25.45;100904.03;5015690;28;45509;-66
2022/07/19 07:08:00;;;;;;;;;9.67;9.33;;;;;33.21;24.62;100893.31;5014358;28;46545;-66
2022/07/19 07:10:25;;;;;;;;;10.33;10.33;;;;;33.04;24.62;100845.28;5016861;28;45307;-67
2022/07/19 07:12:50;;;;;;;;;11.33;10.00;;;;;33.55;25.49;100896.03;5019743;28;45461;-66
2022/07/19 07:15:16;;;;;;;;;13.00;11.67;;;;;33.75;24.55;100905.16;5018551;28;45570;-66
2022/07/19 07:17:41;;;;;;;;;9.00;8.33;;;;;34.05;23.44;100904.81;5019229;28;45487;-69
2022/07/19 07:20:08;;;;;;;;;11.00;11.00;;;;;34.14;23.38;100903.00;5017233;28;45388;-67
2022/07/19 07:22:34;;;;;;;;;10.00;10.00;;;;;34.23;23.13;100910.59;5019606;28;45333;-65
2022/07/19 07:25:03;;;;;;;;;11.00;10.00;;;;;34.20;22.04;100886.38;5019700;28;45343;-66
2022/07/19 07:27:28;;;;;;;;;15.00;13.33;;;;;34.33;24.13;100893.91;5019144;28;47164;-67
2022/07/19 07:29:54;;;;;;;;;17.00;14.00;;;;;34.07;24.04;100818.97;5018934;28;45487;-67
2022/07/19 07:32:19;;;;;;;;;11.00;9.67;;;;;34.76;22.84;100892.69;5019446;28;45574;-65
2022/07/19 07:34:45;;;;;;;;;10.00;10.00;;;;;34.88;23.37;100894.19;5001924;28;45636;-66
2022/07/19 07:37:10;;;;;;;;;11.00;10.33;;;;;34.78;22.66;100857.28;5018955;28;45479;-66
2022/07/19 07:39:36;;;;;;;;;11.33;9.33;;;;;34.97;22.82;100876.59;5001190;28;46100;-65
2022/07/19 07:42:03;;;;;;;;;11.33;11.33;;;;;35.19;22.26;100878.69;5019195;28;45352;-66
2022/07/19 07:44:29;;;;;;;;;9.67;9.67;;;;;35.34;21.72;100880.34;5019200;28;45434;-66
2022/07/19 07:46:55;;;;;;;;;11.67;11.67;;;;;35.40;21.15;100870.03;5018992;28;46292;-66
2022/07/19 07:49:20;;;;;;;;;14.00;11.00;;;;;35.33;21.69;100857.41;5018726;28;45260;-67
2022/07/19 07:51:46;;;;;;;;;14.33;11.33;;;;;35.51;21.83;100871.47;5018885;28;45231;-65
2022/07/19 07:54:12;;;;;;;;;14.00;14.00;;;;;35.42;21.27;100837.34;5001244;28;45292;-67
2022/07/19 07:56:37;;;;;;;;;12.33;11.67;;;;;35.53;20.23;100847.91;5018468;28;45799;-65
2022/07/19 07:59:03;;;;;;;;;16.00;16.00;;;;;35.70;21.84;100855.56;5018499;28;45460;-65
2022/07/19 08:01:29;;;;;;;;;9.00;8.67;;;;;35.76;20.37;100861.81;5018687;28;45844;-66
2022/07/19 08:03:55;;;;;;;;;12.00;10.00;;;;;35.73;21.07;100867.97;5018930;28;45424;-66
2022/07/19 08:06:20;;;;;;;;;9.67;9.67;;;;;35.27;20.63;100786.75;5018309;28;46693;-65
2022/07/19 08:08:45;;;;;;;;;13.00;11.33;;;;;35.53;20.84;100838.78;5018368;28;45283;-65
2022/07/19 08:11:11;;;;;;;;;11.00;10.33;;;;;35.61;22.65;100840.81;5018864;28;45336;-65
2022/07/19 08:13:36;;;;;;;;;12.00;9.33;;;;;35.78;20.42;100856.78;5018673;28;45561;-65
2022/07/19 08:16:02;;;;;;;;;11.33;11.00;;;;;35.65;20.64;100839.91;5018344;28;46023;-66
2022/07/19 08:18:27;;;;;;;;;9.00;7.67;;;;;35.72;20.94;100845.00;5018502;28;45468;-65
2022/07/19 08:20:53;;;;;;;;;11.00;10.33;;;;;35.53;21.22;100823.00;5018609;28;45774;-65
2022/07/19 08:23:18;;;;;;;;;12.00;12.00;;;;;35.72;21.38;100833.94;5017535;28;45444;-65
2022/07/19 08:25:43;;;;;;;;;13.67;11.00;;;;;35.87;21.73;100847.47;5018076;28;46781;-64
2022/07/19 08:28:09;;;;;;;;;12.00;12.00;;;;;35.89;21.32;100820.31;5018053;28;45416;-66
2022/07/19 08:30:34;;;;;;;;;11.67;10.00;;;;;36.15;21.10;100839.91;5000473;28;45456;-64
2022/07/19 08:33:01;;;;;;;;;11.33;11.33;;;;;36.22;21.06;100843.03;5018407;28;45550;-65
2022/07/19 08:35:27;;;;;;;;;16.67;12.67;;;;;36.26;20.56;100846.84;5018387;28;45909;-65
2022/07/19 08:37:52;;;;;;;;;14.00;12.33;;;;;36.33;20.38;100840.88;5018320;28;45249;-65
2022/07/19 08:40:20;;;;;;;;;13.33;11.67;;;;;36.23;20.44;100814.22;5018291;28;45841;-64
2022/07/19 08:42:46;;;;;;;;;9.67;9.00;;;;;36.30;20.70;100819.34;5018351;28;46253;-65
2022/07/19 08:45:12;;;;;;;;;12.00;10.00;;;;;36.41;20.21;100817.16;5018061;28;45769;-64
2022/07/19 08:47:38;;;;;;;;;13.00;11.00;;;;;36.69;20.05;100820.59;5016862;28;45549;-66
2022/07/19 08:50:07;;;;;;;;;11.67;11.33;;;;;36.56;20.32;100773.28;5016210;28;45550;-64
2022/07/19 08:52:33;;;;;;;;;11.00;9.67;;;;;37.07;20.29;100816.25;5018196;28;45472;-66
2022/07/19 08:54:59;;;;;;;;;7.33;6.33;;;;;37.09;21.52;100786.25;5016990;28;46021;-65
2022/07/19 09:00:10;;;;;;;;;12.00;11.00;;;;;37.71;19.18;100816.63;5017881;28;45268;-65
2022/07/19 09:02:36;;;;;;;;;11.67;10.67;;;;;38.01;19.97;100816.81;5017761;28;45395;-65
2022/07/19 09:05:05;;;;;;;;;10.00;10.00;;;;;38.25;18.04;100805.25;5016228;28;45434;-65
2022/07/19 09:07:30;;;;;;;;;10.33;10.33;;;;;38.47;19.33;100804.25;5017513;28;45479;-65
2022/07/19 09:10:17;;;;;;;;;9.00;9.00;;;;;38.77;17.95;100805.97;5017361;28;45194;-66
2022/07/19 09:12:59;;;;;;;;;10.67;9.67;;;;;39.02;16.96;100806.19;5017870;28;45394;-64
2022/07/19 09:15:44;;;;;;;;;11.33;11.00;;;;;39.23;17.25;100790.41;5017397;28;46039;-64
2022/07/19 09:18:31;;;;;;;;;12.00;10.33;;;;;39.47;16.72;100796.19;5017472;28;45512;-65
2022/07/19 09:20:57;;;;;;;;;11.00;8.00;;;;;39.65;15.96;100790.50;5017565;28;45446;-64
2022/07/19 09:23:24;;;;;;;;;9.00;9.00;;;;;39.76;15.44;100788.94;5017680;28;45513;-65
2022/07/19 09:25:54;;;;;;;;;10.33;10.33;;;;;39.86;16.07;100769.06;5015588;28;46917;-64
2022/07/19 09:28:21;;;;;;;;;12.00;11.00;;;;;40.10;15.51;100782.31;5017244;28;45274;-66
2022/07/19 09:30:49;;;;;;;;;11.67;9.67;;;;;40.42;14.59;100794.63;5017067;28;45275;-66
2022/07/19 09:33:17;;;;;;;;;11.00;10.00;;;;;40.68;15.62;100784.00;4999269;28;45203;-65
2022/07/19 09:36:11;;;;;;;;;9.67;8.67;;;;;40.96;14.56;100789.75;5015510;28;48029;-63
2022/07/19 09:38:37;;;;;;;;;11.67;10.00;;;;;41.09;14.67;100771.06;5017051;28;45309;-63
2022/07/19 09:41:17;;;;;;;;;10.33;10.00;;;;;40.93;14.01;100705.97;4999017;28;45390;-73
2022/07/19 09:44:00;;;;;;;;;9.67;9.67;;;;;41.73;14.75;100767.50;5016148;28;45549;-64
2022/07/19 09:46:37;;;;;;;;;10.33;10.33;;;;;41.72;15.38;100698.88;5016864;28;46318;-65
2022/07/19 09:49:02;;;;;;;;;9.67;9.67;;;;;42.02;13.32;100715.25;5017233;28;45717;-66
2022/07/19 09:51:28;;;;;;;;;7.00;7.00;;;;;42.25;13.17;100771.38;5016840;28;45319;-66
2022/07/19 09:53:53;;;;;;;;;8.00;8.00;;;;;41.97;14.79;100743.44;5016616;28;45559;-66
2022/07/19 09:56:19;;;;;;;;;12.67;9.67;;;;;41.81;13.42;100758.16;5015904;28;45786;-66
2022/07/19 09:58:45;;;;;;;;;10.33;9.00;;;;;41.32;14.05;100735.94;5016630;28;45283;-65
2022/07/19 10:01:11;;;;;;;;;8.33;8.33;;;;;41.12;13.93;100724.91;5016787;28;45378;-65
2022/07/19 10:03:36;;;;;;;;;13.33;10.67;;;;;40.95;14.33;100742.69;5017362;28;45452;-64
2022/07/19 10:06:02;;;;;;;;;9.33;9.33;;;;;40.82;15.04;100749.41;5016794;28;46338;-65
2022/07/19 10:08:28;;;;;;;;;8.00;8.00;;;;;40.40;14.90;100716.94;4998751;28;45379;-64
2022/07/19 10:10:54;;;;;;;;;11.33;10.00;;;;;40.17;13.98;100712.94;5016992;28;45471;-64
2022/07/19 10:13:19;;;;;;;;;10.33;9.67;;;;;39.80;15.15;100728.66;5017099;28;45473;-64
2022/07/19 10:15:57;;;;;;;;;10.33;8.33;;;;;39.33;14.71;100701.03;5016579;28;46753;-64
2022/07/19 10:18:32;;;;;;;;;16.33;13.00;;;;;38.99;15.25;100712.34;4998719;28;45440;-64
2022/07/19 10:21:01;;;;;;;;;10.33;10.33;;;;;38.73;15.36;100710.53;5016585;28;45521;-65
2022/07/19 10:23:31;;;;;;;;;7.67;7.67;;;;;38.53;15.39;100719.56;4999011;28;45535;-65
2022/07/19 10:25:57;;;;;;;;;9.67;7.67;;;;;38.27;15.29;100708.56;5016421;28;45545;-65
2022/07/19 10:28:42;;;;;;;;;10.00;8.33;;;;;37.95;16.24;100690.44;4998731;28;45350;-65
2022/07/19 10:31:26;;;;;;;;;9.67;8.00;;;;;37.85;15.33;100713.00;5016558;28;45217;-65
2022/07/19 10:34:03;;;;;;;;;10.33;10.33;;;;;37.67;15.46;100710.22;4998912;28;45264;-64
2022/07/19 10:36:38;;;;;;;;;11.00;10.00;;;;;37.48;15.71;100686.72;4998470;28;47148;-64
2022/07/19 10:39:31;;;;;;;;;8.67;8.67;;;;;37.35;15.93;100694.03;5014968;28;45286;-65
2022/07/19 10:42:16;;;;;;;;;9.67;9.67;;;;;37.23;15.15;100691.03;5016350;28;45301;-65
2022/07/19 10:44:59;;;;;;;;;8.00;8.00;;;;;37.15;15.22;100681.56;5016672;28;45520;-65
2022/07/19 10:47:40;;;;;;;;;7.67;7.67;;;;;37.05;16.13;100688.25;5019765;28;45843;-64
2022/07/19 10:50:05;;;;;;;;;9.00;9.00;;;;;37.02;15.58;100686.13;5019884;28;45192;-64
2022/07/19 10:52:34;;;;;;;;;12.33;9.33;;;;;36.97;15.73;100675.19;5018282;28;45504;-65
2022/07/19 10:55:18;;;;;;;;;10.33;10.33;;;;;36.93;15.75;100671.44;5018896;28;45607;-65
2022/07/19 10:57:59;;;;;;;;;10.33;9.00;;;;;36.92;15.44;100669.81;5001495;28;47591;-64
2022/07/19 11:00:29;;;;;;;;;11.00;8.67;;;;;36.83;15.37;100658.69;5019677;28;45267;-65
2022/07/19 11:03:19;;;;;;;;;8.67;8.67;;;;;36.86;16.27;100662.78;5018682;28;45242;-65
2022/07/19 11:05:48;;;;;;;;;11.00;10.67;;;;;36.82;15.20;100665.34;5001907;28;45588;-65
2022/07/19 11:08:14;;;;;;;;;10.00;10.00;;;;;36.76;15.79;100650.00;5019775;28;45760;-65
2022/07/19 11:10:39;;;;;;;;;12.00;11.00;;;;;36.70;15.25;100642.16;5019619;28;45222;-63
2022/07/19 11:13:05;;;;;;;;;7.00;7.00;;;;;36.72;15.13;100648.19;5019875;28;45828;-63
2022/07/19 11:15:31;;;;;;;;;9.67;9.33;;;;;36.79;15.56;100657.69;5020100;28;45810;-64
2022/07/19 11:17:59;;;;;;;;;9.33;9.33;;;;;36.66;15.29;100627.34;5019672;28;46372;-65
2022/07/19 11:20:30;;;;;;;;;8.33;8.33;;;;;36.63;14.85;100634.31;5019612;28;45531;-64